Time;durP1;ratioP1;P1;durP2;ratioP2;P2;SDS_P1;SDS_P2;PMS_P1;PMS_P2;Temp;Humidity;BMP_temperature;BMP_pressure;BME280_temperature;BME280_humidity;BME280_pressure;Samples;Min_cycle;Max_cycle;Signal;HPM_P1;HPM_P2
2024/04/01 00:00:14;;;;;;;;;;;21.70;47.60;;;;;;3030897;19;4557;-32
2024/04/01 00:01:15;;;;;;;;;;;21.70;47.60;;;;;;3052751;19;4763;-33
2024/04/01 00:02:15;;;;;;;;;;;21.70;47.60;;;;;;3038780;19;5821;-30
2024/04/01 00:03:16;;;;;;;;;;;21.70;47.60;;;;;;3050975;19;4760;-32
2024/04/01 00:04:16;;;;;;;;;;;21.70;47.60;;;;;;3052144;19;4754;-31
2024/04/01 00:05:17;;;;;;;;;;;21.70;47.60;;;;;;3030009;19;4611;-32
2024/04/01 00:06:18;;;;;;;;;;;21.60;47.60;;;;;;3052406;19;4650;-32
2024/04/01 00:07:18;;;;;;;;;;;21.70;47.60;;;;;;3052807;19;4666;-33
2024/04/01 00:08:20;;;;;;;;;;;21.60;47.70;;;;;;3030217;19;4554;-33
2024/04/01 00:09:21;;;;;;;;;;;21.60;47.60;;;;;;3052357;19;4682;-35
2024/04/01 00:10:25;;;;;;;;;;;21.60;47.60;;;;;;3046010;19;5941;-31
2024/04/01 00:11:25;;;;;;;;;;;21.60;47.60;;;;;;3052025;19;4684;-35
2024/04/01 00:12:26;;;;;;;;;;;21.60;47.60;;;;;;3050746;19;4705;-31
2024/04/01 00:13:26;;;;;;;;;;;21.60;47.70;;;;;;3030075;19;4538;-32
2024/04/01 00:14:27;;;;;;;;;;;21.60;47.70;;;;;;3051244;19;4620;-32
2024/04/01 00:15:29;;;;;;;;;;;21.60;47.70;;;;;;3031059;19;4645;-35
2024/04/01 00:16:29;;;;;;;;;;;21.60;47.70;;;;;;3052399;19;4812;-30
2024/04/01 00:17:30;;;;;;;;;;;21.60;47.80;;;;;;3053389;19;4625;-32
2024/04/01 00:18:31;;;;;;;;;;;21.60;47.70;;;;;;3037840;19;5818;-32
2024/04/01 00:19:32;;;;;;;;;;;22.00;47.90;;;;;;3052942;19;4687;-34
2024/04/01 00:20:32;;;;;;;;;;;21.60;47.70;;;;;;3051651;19;4705;-31
2024/04/01 00:21:34;;;;;;;;;;;21.60;47.80;;;;;;3031047;19;4529;-32
2024/04/01 00:22:34;;;;;;;;;;;21.60;47.70;;;;;;3051560;19;4747;-31
2024/04/01 00:23:36;;;;;;;;;;;21.60;47.80;;;;;;3031281;19;4640;-34
2024/04/01 00:24:36;;;;;;;;;;;21.60;47.90;;;;;;3051427;19;4646;-34
2024/04/01 00:25:37;;;;;;;;;;;21.60;47.80;;;;;;3051311;19;4774;-34
2024/04/01 00:26:38;;;;;;;;;;;21.60;47.80;;;;;;3045123;19;5691;-33
2024/04/01 00:27:38;;;;;;;;;;;21.60;47.80;;;;;;3052791;19;4616;-33
2024/04/01 00:28:39;;;;;;;;;;;21.60;47.80;;;;;;3051930;19;4805;-32
2024/04/01 00:29:40;;;;;;;;;;;21.60;47.90;;;;;;3029746;19;4537;-34
2024/04/01 00:30:40;;;;;;;;;;;21.60;47.90;;;;;;3051774;19;4745;-33
2024/04/01 00:31:41;;;;;;;;;;;21.60;47.90;;;;;;3030930;19;4609;-24
2024/04/01 00:32:42;;;;;;;;;;;21.60;47.90;;;;;;3051593;19;4631;-25
2024/04/01 00:33:42;;;;;;;;;;;21.60;48.00;;;;;;3051762;19;4677;-25
2024/04/01 00:34:43;;;;;;;;;;;21.50;47.90;;;;;;3045010;19;4890;-25
2024/04/01 00:35:43;;;;;;;;;;;21.50;47.90;;;;;;3051723;19;4652;-27
2024/04/01 00:36:44;;;;;;;;;;;21.50;47.90;;;;;;3051984;19;4673;-25
2024/04/01 00:37:45;;;;;;;;;;;21.50;47.90;;;;;;3031179;19;5148;-23
2024/04/01 00:38:45;;;;;;;;;;;21.50;48.00;;;;;;3051699;19;4690;-25
2024/04/01 00:39:46;;;;;;;;;;;21.50;48.00;;;;;;3031219;19;4659;-25
2024/04/01 00:40:46;;;;;;;;;;;21.50;48.00;;;;;;3052101;19;4812;-25
2024/04/01 00:41:47;;;;;;;;;;;21.50;48.00;;;;;;3051268;19;4727;-26
2024/04/01 00:42:48;;;;;;;;;;;21.60;48.10;;;;;;3045993;19;5751;-28
2024/04/01 00:43:48;;;;;;;;;;;21.50;48.00;;;;;;3052018;19;4705;-23
2024/04/01 00:44:49;;;;;;;;;;;21.50;48.10;;;;;;3031170;19;4639;-24
2024/04/01 00:45:50;;;;;;;;;;;21.50;48.00;;;;;;3051394;19;4694;-25
2024/04/01 00:46:51;;;;;;;;;;;21.50;48.10;;;;;;3051255;19;4759;-24
2024/04/01 00:47:51;;;;;;;;;;;21.50;48.10;;;;;;3030617;19;4631;-24
2024/04/01 00:48:52;;;;;;;;;;;21.50;48.00;;;;;;3051842;19;4642;-24
2024/04/01 00:49:54;;;;;;;;;;;21.50;48.10;;;;;;3051619;19;4652;-25
2024/04/01 00:50:54;;;;;;;;;;;21.50;48.10;;;;;;3045330;19;4262;-26
2024/04/01 00:51:55;;;;;;;;;;;21.50;48.10;;;;;;3051739;19;4831;-23
2024/04/01 00:52:55;;;;;;;;;;;21.50;48.30;;;;;;3029721;19;4590;-25
2024/04/01 00:53:56;;;;;;;;;;;21.50;48.20;;;;;;3051355;19;4831;-24
2024/04/01 00:54:57;;;;;;;;;;;21.50;48.10;;;;;;3052075;19;4623;-25
2024/04/01 00:55:57;;;;;;;;;;;21.50;48.30;;;;;;3030136;19;4800;-26
2024/04/01 00:56:58;;;;;;;;;;;21.40;48.10;;;;;;3051720;19;4647;-24
2024/04/01 00:57:59;;;;;;;;;;;21.50;48.20;;;;;;3052114;19;4687;-26
2024/04/01 00:59:00;;;;;;;;;;;21.50;48.20;;;;;;3044079;19;5707;-23
2024/04/01 01:00:01;;;;;;;;;;;21.40;48.20;;;;;;3051983;19;4685;-25
2024/04/01 01:01:01;;;;;;;;;;;21.50;48.20;;;;;;3029235;19;4665;-25
2024/04/01 01:02:02;;;;;;;;;;;21.50;48.30;;;;;;3051694;19;4798;-25
2024/04/01 01:03:03;;;;;;;;;;;21.40;48.20;;;;;;3051477;19;4628;-26
2024/04/01 01:04:04;;;;;;;;;;;21.40;48.20;;;;;;3030376;19;4655;-25
2024/04/01 01:05:05;;;;;;;;;;;21.40;48.20;;;;;;3052018;19;4631;-25
2024/04/01 01:06:06;;;;;;;;;;;21.40;48.20;;;;;;3045666;19;5632;-24
2024/04/01 01:07:07;;;;;;;;;;;21.40;48.40;;;;;;3050661;19;5229;-24
2024/04/01 01:08:08;;;;;;;;;;;21.40;48.30;;;;;;3051616;19;4681;-25
2024/04/01 01:09:11;;;;;;;;;;;21.40;48.40;;;;;;3029086;19;4631;-26
2024/04/01 01:10:12;;;;;;;;;;;21.40;48.30;;;;;;3051353;19;4675;-25
2024/04/01 01:11:12;;;;;;;;;;;21.40;48.30;;;;;;3052131;19;4704;-24
2024/04/01 01:12:14;;;;;;;;;;;21.40;48.30;;;;;;3029071;19;4592;-24
2024/04/01 01:13:16;;;;;;;;;;;21.40;48.30;;;;;;3050983;19;4683;-26
2024/04/01 01:14:17;;;;;;;;;;;21.40;48.30;;;;;;3045218;19;5601;-24
2024/04/01 01:15:18;;;;;;;;;;;21.40;48.50;;;;;;3049511;19;4699;-26
2024/04/01 01:16:18;;;;;;;;;;;21.40;48.50;;;;;;3049707;19;4726;-24
2024/04/01 01:17:19;;;;;;;;;;;21.40;48.50;;;;;;3029339;19;4597;-25
2024/04/01 01:18:20;;;;;;;;;;;21.40;48.50;;;;;;3051447;19;4730;-24
2024/04/01 01:19:20;;;;;;;;;;;21.40;48.50;;;;;;3051534;19;4657;-26
2024/04/01 01:20:21;;;;;;;;;;;21.30;48.50;;;;;;3029622;19;4739;-25
2024/04/01 01:21:22;;;;;;;;;;;21.30;48.50;;;;;;3051182;19;4704;-25
2024/04/01 01:22:35;;;;;;;;;;;21.30;48.50;;;;;;3044150;19;5757;-24
2024/04/01 01:23:36;;;;;;;;;;;21.30;48.50;;;;;;3050827;19;4638;-24
2024/04/01 01:24:36;;;;;;;;;;;21.30;48.50;;;;;;3051392;19;4637;-25
2024/04/01 01:25:37;;;;;;;;;;;21.40;48.60;;;;;;3029558;19;4564;-24
2024/04/01 01:26:38;;;;;;;;;;;21.40;48.70;;;;;;3049516;19;4742;-25
2024/04/01 01:27:40;;;;;;;;;;;21.40;48.60;;;;;;3030096;19;4844;-24
2024/04/01 01:28:41;;;;;;;;;;;21.30;48.60;;;;;;3051291;19;4640;-24
2024/04/01 01:29:41;;;;;;;;;;;21.40;48.60;;;;;;3051634;19;4616;-24
2024/04/01 01:30:42;;;;;;;;;;;21.40;48.60;;;;;;3044100;19;4305;-26
2024/04/01 01:31:43;;;;;;;;;;;21.40;48.60;;;;;;3051732;19;4632;-25
2024/04/01 01:32:54;;;;;;;;;;;21.30;48.60;;;;;;3050896;19;4657;-25
2024/04/01 01:33:54;;;;;;;;;;;21.30;48.60;;;;;;3029688;19;4733;-24
2024/04/01 01:34:55;;;;;;;;;;;21.30;48.60;;;;;;3051151;19;4628;-25
2024/04/01 01:35:56;;;;;;;;;;;21.30;48.60;;;;;;3027328;19;4667;-26
2024/04/01 01:36:58;;;;;;;;;;;21.30;48.70;;;;;;3050161;19;4715;-24
2024/04/01 01:37:58;;;;;;;;;;;21.30;48.70;;;;;;3050901;19;4626;-24
2024/04/01 01:38:59;;;;;;;;;;;21.30;48.70;;;;;;3043941;19;5580;-24
2024/04/01 01:39:59;;;;;;;;;;;21.30;48.60;;;;;;3050617;19;4640;-25
2024/04/01 01:41:00;;;;;;;;;;;21.30;48.70;;;;;;3030334;19;4573;-25
2024/04/01 01:42:01;;;;;;;;;;;21.30;48.70;;;;;;3053325;19;4589;-25
2024/04/01 01:43:01;;;;;;;;;;;21.30;48.70;;;;;;3053544;19;4667;-25
2024/04/01 01:44:02;;;;;;;;;;;21.30;48.70;;;;;;3032697;19;4599;-25
2024/04/01 01:45:04;;;;;;;;;;;21.30;48.70;;;;;;3054410;19;4605;-25
2024/04/01 01:46:05;;;;;;;;;;;21.30;48.70;;;;;;3053134;19;4571;-28
2024/04/01 01:47:06;;;;;;;;;;;21.30;48.80;;;;;;3052702;19;4886;-27
2024/04/01 01:48:07;;;;;;;;;;;21.30;48.70;;;;;;3053789;19;5087;-27
2024/04/01 01:49:09;;;;;;;;;;;21.20;48.70;;;;;;3031396;19;4763;-24
2024/04/01 01:50:11;;;;;;;;;;;21.30;48.80;;;;;;3053650;19;4705;-26
2024/04/01 01:51:12;;;;;;;;;;;21.30;48.80;;;;;;3053907;19;1059;-24
2024/04/01 01:52:13;;;;;;;;;;;21.20;48.70;;;;;;3029950;19;4604;-24
2024/04/01 01:53:14;;;;;;;;;;;21.20;48.80;;;;;;3054008;19;5211;-25
2024/04/01 01:54:14;;;;;;;;;;;21.30;48.80;;;;;;3046033;19;5797;-26
2024/04/01 01:55:15;;;;;;;;;;;21.20;48.90;;;;;;3053952;19;4860;-27
2024/04/01 01:56:18;;;;;;;;;;;21.30;49.00;;;;;;3054299;19;4676;-26
2024/04/01 01:57:19;;;;;;;;;;;21.20;48.80;;;;;;3032722;19;4566;-24
2024/04/01 01:58:20;;;;;;;;;;;21.30;49.00;;;;;;3054379;19;4678;-26
2024/04/01 01:59:20;;;;;;;;;;;21.30;48.90;;;;;;3054657;19;4711;-25
2024/04/01 02:00:21;;;;;;;;;;;21.20;48.90;;;;;;3032948;19;4603;-24
2024/04/01 02:01:22;;;;;;;;;;;21.30;49.00;;;;;;3051047;19;4837;-24
2024/04/01 02:02:22;;;;;;;;;;;21.30;48.90;;;;;;3045974;19;5771;-24
2024/04/01 02:03:23;;;;;;;;;;;21.20;49.00;;;;;;3052082;19;4761;-24
2024/04/01 02:04:23;;;;;;;;;;;21.20;48.90;;;;;;3054162;19;4713;-24
2024/04/01 02:05:24;;;;;;;;;;;21.20;49.00;;;;;;3032808;19;5032;-24
2024/04/01 02:06:25;;;;;;;;;;;21.20;48.90;;;;;;3054319;19;4940;-24
2024/04/01 02:07:25;;;;;;;;;;;21.20;48.90;;;;;;3050726;19;4688;-25
2024/04/01 02:08:27;;;;;;;;;;;21.20;49.00;;;;;;3041470;19;4664;-26
2024/04/01 02:09:27;;;;;;;;;;;21.20;48.90;;;;;;3054338;19;4671;-26
2024/04/01 02:10:28;;;;;;;;;;;21.20;48.90;;;;;;3046710;19;4375;-27
2024/04/01 02:11:29;;;;;;;;;;;21.20;48.90;;;;;;3053759;19;4611;-27
2024/04/01 02:12:29;;;;;;;;;;;21.20;48.90;;;;;;3054531;19;5292;-25
2024/04/01 02:13:30;;;;;;;;;;;21.20;49.00;;;;;;3030712;19;4632;-24
2024/04/01 02:14:31;;;;;;;;;;;21.20;48.90;;;;;;3053887;19;4694;-25
2024/04/01 02:15:31;;;;;;;;;;;21.20;49.00;;;;;;3031980;19;4904;-26
2024/04/01 02:16:32;;;;;;;;;;;21.20;48.90;;;;;;3053300;19;4703;-25
2024/04/01 02:17:33;;;;;;;;;;;21.20;48.90;;;;;;3053264;19;4816;-26
2024/04/01 02:18:33;;;;;;;;;;;21.40;49.10;;;;;;3043888;19;5903;-24
2024/04/01 02:19:35;;;;;;;;;;;21.20;49.00;;;;;;3053039;19;4714;-25
2024/04/01 02:20:35;;;;;;;;;;;21.20;48.90;;;;;;3054174;19;4728;-24
2024/04/01 02:21:37;;;;;;;;;;;21.20;48.90;;;;;;3031520;19;4533;-25
2024/04/01 02:22:37;;;;;;;;;;;21.10;48.90;;;;;;3053846;19;4713;-25
2024/04/01 02:23:38;;;;;;;;;;;21.20;49.00;;;;;;3032573;19;4682;-23
2024/04/01 02:24:42;;;;;;;;;;;21.20;49.00;;;;;;3053060;19;4697;-24
2024/04/01 02:25:43;;;;;;;;;;;21.20;49.00;;;;;;3053860;19;4693;-24
2024/04/01 02:26:47;;;;;;;;;;;21.20;49.00;;;;;;3046686;19;4338;-26
2024/04/01 02:27:47;;;;;;;;;;;21.10;48.90;;;;;;3053947;19;4696;-26
2024/04/01 02:28:49;;;;;;;;;;;21.20;49.10;;;;;;3032443;19;4821;-24
2024/04/01 02:29:50;;;;;;;;;;;21.10;49.00;;;;;;3053777;19;4893;-23
2024/04/01 02:30:50;;;;;;;;;;;21.10;49.10;;;;;;3054650;19;4621;-24
2024/04/01 02:31:51;;;;;;;;;;;21.10;49.10;;;;;;3032365;19;4696;-26
2024/04/01 02:32:51;;;;;;;;;;;21.10;49.20;;;;;;3052654;19;4760;-24
2024/04/01 02:33:52;;;;;;;;;;;21.10;49.00;;;;;;3053792;19;4734;-24
2024/04/01 02:34:53;;;;;;;;;;;21.10;48.90;;;;;;3047241;19;4403;-27
2024/04/01 02:35:53;;;;;;;;;;;21.20;49.00;;;;;;3051766;19;4635;-26
2024/04/01 02:36:57;;;;;;;;;;;21.30;49.10;;;;;;3031178;19;4655;-26
2024/04/01 02:37:57;;;;;;;;;;;21.30;48.90;;;;;;3053912;19;4675;-26
2024/04/01 02:38:58;;;;;;;;;;;21.40;48.80;;;;;;3053292;19;5295;-25
2024/04/01 02:39:58;;;;;;;;;;;21.40;48.70;;;;;;3032609;19;4639;-24
2024/04/01 02:40:59;;;;;;;;;;;21.40;48.60;;;;;;3053421;19;4733;-29
2024/04/01 02:42:00;;;;;;;;;;;21.50;48.60;;;;;;3053389;19;4636;-24
2024/04/01 02:43:00;;;;;;;;;;;21.50;48.50;;;;;;3042526;19;5938;-25
2024/04/01 02:44:01;;;;;;;;;;;21.50;48.50;;;;;;3053480;19;4607;-24
2024/04/01 02:45:01;;;;;;;;;;;21.60;48.50;;;;;;3032055;19;4631;-28
2024/04/01 02:46:04;;;;;;;;;;;21.60;48.30;;;;;;3052655;19;4696;-25
2024/04/01 02:47:04;;;;;;;;;;;21.70;48.20;;;;;;3053788;19;4575;-26
2024/04/01 02:48:06;;;;;;;;;;;21.70;48.10;;;;;;3031442;19;4661;-25
2024/04/01 02:49:06;;;;;;;;;;;21.80;47.90;;;;;;3052768;19;8073;-24
2024/04/01 02:50:07;;;;;;;;;;;21.80;47.90;;;;;;3048099;19;6058;-23
2024/04/01 02:51:08;;;;;;;;;;;21.80;47.80;;;;;;3052572;19;4612;-25
2024/04/01 02:52:08;;;;;;;;;;;21.80;47.90;;;;;;3052317;19;4838;-33
2024/04/01 02:53:09;;;;;;;;;;;21.90;47.60;;;;;;3031293;19;4452;-31
2024/04/01 02:54:09;;;;;;;;;;;21.90;47.60;;;;;;3053187;19;4697;-33
2024/04/01 02:55:10;;;;;;;;;;;21.90;47.50;;;;;;3053130;19;1230;-34
2024/04/01 02:56:11;;;;;;;;;;;21.90;47.50;;;;;;3031342;19;4573;-31
2024/04/01 02:57:11;;;;;;;;;;;21.90;47.50;;;;;;3051767;19;4682;-30
2024/04/01 02:58:12;;;;;;;;;;;21.90;47.60;;;;;;3047659;19;4443;-32
2024/04/01 02:59:12;;;;;;;;;;;22.00;47.50;;;;;;3053866;19;4637;-33
2024/04/01 03:00:16;;;;;;;;;;;22.00;47.50;;;;;;3052819;19;4675;-32
2024/04/01 03:01:17;;;;;;;;;;;22.00;47.40;;;;;;3032048;19;4542;-31
2024/04/01 03:02:17;;;;;;;;;;;22.00;47.30;;;;;;3053602;19;4712;-25
2024/04/01 03:03:18;;;;;;;;;;;22.10;47.30;;;;;;3052583;19;4853;-24
2024/04/01 03:04:18;;;;;;;;;;;22.10;47.20;;;;;;3031042;19;4771;-24
2024/04/01 03:05:19;;;;;;;;;;;22.10;47.20;;;;;;3052731;19;4659;-24
2024/04/01 03:06:20;;;;;;;;;;;22.10;47.10;;;;;;3047317;19;6093;-25
2024/04/01 03:07:20;;;;;;;;;;;22.20;47.10;;;;;;3053340;19;4818;-27
2024/04/01 03:08:21;;;;;;;;;;;22.20;47.00;;;;;;3053380;19;4648;-23
2024/04/01 03:09:22;;;;;;;;;;;22.10;46.90;;;;;;3031993;19;4556;-25
2024/04/01 03:10:22;;;;;;;;;;;22.20;47.00;;;;;;3053458;19;4683;-24
2024/04/01 03:11:23;;;;;;;;;;;22.10;46.90;;;;;;3053599;19;4763;-24
2024/04/01 03:12:24;;;;;;;;;;;22.20;46.90;;;;;;3031361;19;4571;-24
2024/04/01 03:13:26;;;;;;;;;;;22.10;47.00;;;;;;3053509;19;4803;-25
2024/04/01 03:14:26;;;;;;;;;;;22.20;47.00;;;;;;3041357;19;5852;-24
2024/04/01 03:15:27;;;;;;;;;;;22.20;47.00;;;;;;3053412;19;4820;-24
2024/04/01 03:16:28;;;;;;;;;;;22.20;46.90;;;;;;3053529;19;5081;-26
2024/04/01 03:17:30;;;;;;;;;;;22.30;46.80;;;;;;3032146;19;4491;-25
2024/04/01 03:18:31;;;;;;;;;;;22.30;46.70;;;;;;3052835;19;4670;-24
2024/04/01 03:19:32;;;;;;;;;;;22.30;46.70;;;;;;3032056;19;4670;-24
2024/04/01 03:20:33;;;;;;;;;;;22.40;46.70;;;;;;3052896;19;4779;-24
2024/04/01 03:21:33;;;;;;;;;;;22.30;46.70;;;;;;3053352;19;4690;-24
2024/04/01 03:22:34;;;;;;;;;;;22.40;46.60;;;;;;3046090;19;5653;-24
2024/04/01 03:23:35;;;;;;;;;;;22.30;46.60;;;;;;3052710;19;4753;-24
2024/04/01 03:24:35;;;;;;;;;;;22.40;46.60;;;;;;3053401;19;4615;-24
2024/04/01 03:25:36;;;;;;;;;;;22.40;46.60;;;;;;3031281;19;4613;-26
2024/04/01 03:26:36;;;;;;;;;;;22.40;46.50;;;;;;3053365;19;4736;-24
2024/04/01 03:27:37;;;;;;;;;;;22.40;46.60;;;;;;3031633;19;4689;-25
2024/04/01 03:28:38;;;;;;;;;;;22.30;46.50;;;;;;3053336;19;4622;-24
2024/04/01 03:29:38;;;;;;;;;;;22.30;46.50;;;;;;3053207;19;4684;-24
2024/04/01 03:30:39;;;;;;;;;;;22.30;46.60;;;;;;3046555;19;6676;-25
2024/04/01 03:31:41;;;;;;;;;;;22.30;46.60;;;;;;3052797;19;4696;-24
2024/04/01 03:32:42;;;;;;;;;;;22.40;46.70;;;;;;3052852;19;4648;-26
2024/04/01 03:33:44;;;;;;;;;;;22.30;46.60;;;;;;3031639;19;4498;-24
2024/04/01 03:34:48;;;;;;;;;;;22.40;46.60;;;;;;3052864;19;4802;-24
2024/04/01 03:35:54;;;;;;;;;;;22.30;46.70;;;;;;3031071;19;4628;-24
2024/04/01 03:36:57;;;;;;;;;;;22.30;46.70;;;;;;3052504;19;4658;-23
2024/04/01 03:37:58;;;;;;;;;;;22.30;46.70;;;;;;3053585;19;4616;-24
2024/04/01 03:38:58;;;;;;;;;;;22.30;46.70;;;;;;3046783;19;4438;-25
2024/04/01 03:39:59;;;;;;;;;;;22.30;46.70;;;;;;3053381;19;4605;-24
2024/04/01 03:41:00;;;;;;;;;;;22.30;46.80;;;;;;3031022;19;4633;-25
2024/04/01 03:42:00;;;;;;;;;;;22.30;47.40;;;;;;3051220;19;4660;-25
2024/04/01 03:43:01;;;;;;;;;;;22.20;46.80;;;;;;3053008;19;4656;-25
2024/04/01 03:44:02;;;;;;;;;;;22.20;46.80;;;;;;3031025;19;4623;-25
2024/04/01 03:45:06;;;;;;;;;;;22.20;46.80;;;;;;3052917;19;4760;-24
2024/04/01 03:46:08;;;;;;;;;;;22.20;46.80;;;;;;3044720;19;5752;-25
2024/04/01 03:47:10;;;;;;;;;;;22.20;46.90;;;;;;3052054;19;4696;-24
2024/04/01 03:48:11;;;;;;;;;;;22.20;46.90;;;;;;3052656;19;4713;-25
2024/04/01 03:49:11;;;;;;;;;;;22.20;46.90;;;;;;3031340;19;4585;-24
2024/04/01 03:50:12;;;;;;;;;;;22.20;47.00;;;;;;3052750;19;4807;-25
2024/04/01 03:51:14;;;;;;;;;;;22.20;47.00;;;;;;3052211;19;1129;-24
2024/04/01 03:52:15;;;;;;;;;;;22.20;47.10;;;;;;3030260;19;4844;-26
2024/04/01 03:53:15;;;;;;;;;;;22.10;47.10;;;;;;3052433;19;4771;-25
2024/04/01 03:54:16;;;;;;;;;;;22.10;47.00;;;;;;3046864;19;5800;-26
2024/04/01 03:55:17;;;;;;;;;;;22.10;47.10;;;;;;3052839;19;4639;-24
2024/04/01 03:56:18;;;;;;;;;;;22.10;47.10;;;;;;3052521;19;4736;-24
2024/04/01 03:57:18;;;;;;;;;;;22.10;47.20;;;;;;3030498;19;4564;-25
2024/04/01 03:58:19;;;;;;;;;;;22.10;47.20;;;;;;3052718;19;4647;-25
2024/04/01 03:59:20;;;;;;;;;;;22.10;47.30;;;;;;3051971;19;4710;-24
2024/04/01 04:00:20;;;;;;;;;;;22.10;47.20;;;;;;3030830;19;5037;-25
2024/04/01 04:01:21;;;;;;;;;;;22.10;47.10;;;;;;3053171;19;4644;-25
2024/04/01 04:02:22;;;;;;;;;;;22.10;47.00;;;;;;3046268;19;4348;-26
2024/04/01 04:03:23;;;;;;;;;;;22.40;47.20;;;;;;3051098;19;4833;-25
2024/04/01 04:04:23;;;;;;;;;;;22.20;47.10;;;;;;3049871;19;4724;-26
2024/04/01 04:05:24;;;;;;;;;;;22.20;47.10;;;;;;3029688;19;5319;-24
2024/04/01 04:06:24;;;;;;;;;;;22.20;47.10;;;;;;3052093;19;4826;-25
2024/04/01 04:07:25;;;;;;;;;;;22.20;47.10;;;;;;3052267;19;4671;-25
2024/04/01 04:08:26;;;;;;;;;;;22.20;47.20;;;;;;3030967;19;4658;-24
2024/04/01 04:09:26;;;;;;;;;;;22.20;47.10;;;;;;3052612;19;4835;-24
2024/04/01 04:10:28;;;;;;;;;;;22.20;47.20;;;;;;3045714;19;5668;-24
2024/04/01 04:11:29;;;;;;;;;;;22.20;47.20;;;;;;3052658;19;4647;-28
2024/04/01 04:12:32;;;;;;;;;;;22.20;47.10;;;;;;3053133;19;4733;-33
2024/04/01 04:13:34;;;;;;;;;;;22.20;47.10;;;;;;3031560;19;4596;-31
2024/04/01 04:14:35;;;;;;;;;;;22.20;47.20;;;;;;3051457;19;4707;-33
2024/04/01 04:15:35;;;;;;;;;;;22.10;47.10;;;;;;3030598;19;4737;-33
2024/04/01 04:16:36;;;;;;;;;;;22.20;47.20;;;;;;3052215;19;4623;-34
2024/04/01 04:17:37;;;;;;;;;;;22.10;47.20;;;;;;3052569;19;4878;-30
2024/04/01 04:18:37;;;;;;;;;;;22.10;47.10;;;;;;3046134;19;5902;-31
2024/04/01 04:19:38;;;;;;;;;;;22.20;47.20;;;;;;3052789;19;4593;-32
2024/04/01 04:20:39;;;;;;;;;;;22.10;47.20;;;;;;3051793;19;4703;-32
2024/04/01 04:21:39;;;;;;;;;;;22.10;47.30;;;;;;3031144;19;4704;-32
2024/04/01 04:22:40;;;;;;;;;;;22.10;47.30;;;;;;3051987;19;4647;-35
2024/04/01 04:23:40;;;;;;;;;;;22.10;47.30;;;;;;3030254;19;4771;-34
2024/04/01 04:24:42;;;;;;;;;;;22.10;47.30;;;;;;3051652;19;4639;-31
2024/04/01 04:25:43;;;;;;;;;;;22.10;47.40;;;;;;3052537;19;4646;-32
2024/04/01 04:26:43;;;;;;;;;;;22.10;47.30;;;;;;3046988;19;4308;-34
2024/04/01 04:27:44;;;;;;;;;;;22.10;47.40;;;;;;3052651;19;4682;-30
2024/04/01 04:28:45;;;;;;;;;;;22.00;47.40;;;;;;3052378;19;4674;-31
2024/04/01 04:29:45;;;;;;;;;;;22.10;47.40;;;;;;3030056;19;21817;-32
2024/04/01 04:30:46;;;;;;;;;;;22.10;47.50;;;;;;3051305;19;4775;-33
2024/04/01 04:31:56;;;;;;;;;;;22.10;47.40;;;;;;3030967;19;4670;-35
2024/04/01 04:32:57;;;;;;;;;;;22.00;47.40;;;;;;3052181;19;4603;-32
2024/04/01 04:33:58;;;;;;;;;;;22.00;47.50;;;;;;3052937;19;4612;-30
2024/04/01 04:34:59;;;;;;;;;;;22.00;47.50;;;;;;3045317;19;5712;-31
2024/04/01 04:35:59;;;;;;;;;;;22.00;47.40;;;;;;3052147;19;4689;-34
2024/04/01 04:37:00;;;;;;;;;;;22.10;47.20;;;;;;3030448;19;4784;-34
2024/04/01 04:38:00;;;;;;;;;;;22.10;47.10;;;;;;3050869;19;4650;-29
2024/04/01 04:39:01;;;;;;;;;;;22.20;47.00;;;;;;3052303;19;4729;-33
2024/04/01 04:40:03;;;;;;;;;;;22.20;47.00;;;;;;3030999;19;4831;-33
2024/04/01 04:41:06;;;;;;;;;;;22.20;47.00;;;;;;3050046;19;4682;-31
2024/04/01 04:42:08;;;;;;;;;;;22.20;47.00;;;;;;3042694;19;5741;-34
2024/04/01 04:43:08;;;;;;;;;;;22.20;46.90;;;;;;3051050;19;4782;-35
2024/04/01 04:44:09;;;;;;;;;;;22.20;46.90;;;;;;3051357;19;4828;-33
2024/04/01 04:45:10;;;;;;;;;;;22.20;46.90;;;;;;3030713;19;4707;-33
2024/04/01 04:46:11;;;;;;;;;;;22.30;46.90;;;;;;3051618;19;4752;-33
2024/04/01 04:47:12;;;;;;;;;;;22.30;46.90;;;;;;3051602;19;1145;-31
2024/04/01 04:48:13;;;;;;;;;;;22.20;46.90;;;;;;3030298;19;4745;-32
2024/04/01 04:49:13;;;;;;;;;;;22.20;46.90;;;;;;3051219;19;4670;-34
2024/04/01 04:50:14;;;;;;;;;;;22.30;47.00;;;;;;3043934;19;5702;-32
2024/04/01 04:51:14;;;;;;;;;;;22.20;46.90;;;;;;3051626;19;4698;-32
2024/04/01 04:52:15;;;;;;;;;;;22.20;47.00;;;;;;3052378;19;4791;-34
2024/04/01 04:53:16;;;;;;;;;;;22.20;47.00;;;;;;3029715;19;4493;-32
2024/04/01 04:54:17;;;;;;;;;;;22.20;46.90;;;;;;3051399;19;4748;-31
2024/04/01 04:55:17;;;;;;;;;;;22.30;46.80;;;;;;3052607;19;4740;-32
2024/04/01 04:56:18;;;;;;;;;;;22.30;46.70;;;;;;3028404;19;4593;-32
2024/04/01 04:57:19;;;;;;;;;;;22.30;46.70;;;;;;3051425;19;4759;-34
2024/04/01 04:58:20;;;;;;;;;;;22.30;46.70;;;;;;3045825;19;5999;-32
2024/04/01 04:59:20;;;;;;;;;;;22.30;46.60;;;;;;3050238;19;4739;-32
2024/04/01 05:00:21;;;;;;;;;;;22.40;46.60;;;;;;3049941;19;4706;-30
2024/04/01 05:01:22;;;;;;;;;;;22.40;46.60;;;;;;3029057;19;4805;-35
2024/04/01 05:02:22;;;;;;;;;;;22.40;46.60;;;;;;3051003;19;4681;-31
2024/04/01 05:03:23;;;;;;;;;;;22.40;46.60;;;;;;3051384;19;4748;-34
2024/04/01 05:04:24;;;;;;;;;;;22.40;46.50;;;;;;3029473;19;4533;-32
2024/04/01 05:05:25;;;;;;;;;;;22.40;46.50;;;;;;3051200;19;4673;-35
2024/04/01 05:06:26;;;;;;;;;;;22.40;46.50;;;;;;3045246;19;5826;-31
2024/04/01 05:07:26;;;;;;;;;;;22.40;46.50;;;;;;3051549;19;4689;-32
2024/04/01 05:08:27;;;;;;;;;;;22.40;46.50;;;;;;3051008;19;5207;-33
2024/04/01 05:09:29;;;;;;;;;;;22.40;46.50;;;;;;3030483;19;4576;-31
2024/04/01 05:10:30;;;;;;;;;;;22.40;46.50;;;;;;3051827;19;4733;-29
2024/04/01 05:11:31;;;;;;;;;;;22.40;46.50;;;;;;3029743;19;4700;-31
2024/04/01 05:12:31;;;;;;;;;;;22.40;46.50;;;;;;3050921;19;5288;-27
2024/04/01 05:13:32;;;;;;;;;;;22.40;46.50;;;;;;3051796;19;4686;-25
2024/04/01 05:14:32;;;;;;;;;;;22.40;46.50;;;;;;3044092;19;4362;-24
2024/04/01 05:15:33;;;;;;;;;;;22.40;46.50;;;;;;3053087;19;4718;-25
2024/04/01 05:16:34;;;;;;;;;;;22.40;46.50;;;;;;3053879;19;4711;-25
2024/04/01 05:17:35;;;;;;;;;;;22.40;46.50;;;;;;3032279;19;4611;-26
2024/04/01 05:18:36;;;;;;;;;;;22.40;46.50;;;;;;3054329;19;4713;-26
2024/04/01 05:19:36;;;;;;;;;;;22.40;46.50;;;;;;3033081;19;4684;-26
2024/04/01 05:20:37;;;;;;;;;;;22.40;46.70;;;;;;3052030;19;4749;-25
2024/04/01 05:21:38;;;;;;;;;;;22.40;46.50;;;;;;3053005;19;4740;-24
2024/04/01 05:22:38;;;;;;;;;;;22.40;46.50;;;;;;3048513;19;4492;-24
2024/04/01 05:23:39;;;;;;;;;;;22.40;46.50;;;;;;3054457;19;4819;-25
2024/04/01 05:24:40;;;;;;;;;;;22.40;46.60;;;;;;3054665;19;5060;-26
2024/04/01 05:25:40;;;;;;;;;;;22.40;46.50;;;;;;3031456;19;4600;-24
2024/04/01 05:26:41;;;;;;;;;;;22.40;46.50;;;;;;3053683;19;4700;-26
2024/04/01 05:27:42;;;;;;;;;;;22.40;46.50;;;;;;3033736;19;4715;-24
2024/04/01 05:28:42;;;;;;;;;;;22.40;46.60;;;;;;3054655;19;4692;-25
2024/04/01 05:29:43;;;;;;;;;;;22.40;46.70;;;;;;3054886;19;5168;-24
2024/04/01 05:30:46;;;;;;;;;;;22.40;46.60;;;;;;3038042;19;5829;-24
2024/04/01 05:31:47;;;;;;;;;;;22.40;46.60;;;;;;3055379;19;4684;-24
2024/04/01 05:32:47;;;;;;;;;;;22.40;46.60;;;;;;3033292;19;4707;-25
2024/04/01 05:33:48;;;;;;;;;;;22.30;46.60;;;;;;3053596;19;4696;-35
2024/04/01 05:34:51;;;;;;;;;;;22.30;46.60;;;;;;3053077;19;4659;-33
2024/04/01 05:35:51;;;;;;;;;;;22.30;46.60;;;;;;3032190;19;4669;-33
2024/04/01 05:36:52;;;;;;;;;;;22.30;46.70;;;;;;3052582;19;4822;-30
2024/04/01 05:37:53;;;;;;;;;;;22.30;46.70;;;;;;3053729;19;4610;-31
2024/04/01 05:38:53;;;;;;;;;;;22.30;46.70;;;;;;3036329;19;5844;-31
2024/04/01 05:39:54;;;;;;;;;;;22.30;46.80;;;;;;3053031;19;4761;-33
2024/04/01 05:40:55;;;;;;;;;;;22.30;46.70;;;;;;3033397;19;4732;-30
2024/04/01 05:41:55;;;;;;;;;;;22.30;46.80;;;;;;3052298;19;4670;-31
2024/04/01 05:42:56;;;;;;;;;;;22.20;46.80;;;;;;3051998;19;4637;-33
2024/04/01 05:43:57;;;;;;;;;;;22.30;46.90;;;;;;3032049;19;4656;-32
2024/04/01 05:44:57;;;;;;;;;;;22.20;46.90;;;;;;3052829;19;4640;-31
2024/04/01 05:45:58;;;;;;;;;;;22.20;46.90;;;;;;3053716;19;4611;-34
2024/04/01 05:46:58;;;;;;;;;;;22.20;46.90;;;;;;3047026;19;5816;-31
2024/04/01 05:47:59;;;;;;;;;;;22.20;46.90;;;;;;3053893;19;4627;-36
2024/04/01 05:49:00;;;;;;;;;;;22.20;47.00;;;;;;3030986;19;4610;-32
2024/04/01 05:50:02;;;;;;;;;;;22.20;47.00;;;;;;3053785;19;4564;-35
2024/04/01 05:51:03;;;;;;;;;;;22.10;47.00;;;;;;3054290;19;4632;-31
2024/04/01 05:52:03;;;;;;;;;;;22.10;47.10;;;;;;3032829;19;4609;-34
2024/04/01 05:53:04;;;;;;;;;;;22.20;47.00;;;;;;3053830;19;4597;-34
2024/04/01 05:54:05;;;;;;;;;;;22.20;46.90;;;;;;3053885;19;4612;-33
2024/04/01 05:55:07;;;;;;;;;;;22.20;46.80;;;;;;3048583;19;17843;-33
2024/04/01 05:56:07;;;;;;;;;;;22.30;46.70;;;;;;3053230;19;4681;-34
2024/04/01 05:57:08;;;;;;;;;;;22.30;46.80;;;;;;3032736;19;4474;-32
2024/04/01 05:58:09;;;;;;;;;;;22.30;46.70;;;;;;3053597;19;4642;-33
2024/04/01 05:59:10;;;;;;;;;;;22.30;46.60;;;;;;3055132;19;902;-31
2024/04/01 06:00:11;;;;;;;;;;;22.30;46.70;;;;;;3028551;19;4688;-33